Time;durP1;ratioP1;P1;durP2;ratioP2;P2;SDS_P1;SDS_P2;PMS_P1;PMS_P2;Temp;Humidity;BMP_temperature;BMP_pressure;BME280_temperature;BME280_humidity;BME280_pressure;Samples;Min_cycle;Max_cycle;Signal;HPM_P1;HPM_P2
2022/03/29 00:01:55;;;;;;;5.85;2.50;;;;;;;17.91;37.50;97204.97;5134975;27;20047;-31
2022/03/29 00:04:20;;;;;;;8.68;3.30;;;;;;;17.92;37.71;97203.75;5135299;27;20105;-31
2022/03/29 00:06:46;;;;;;;8.40;2.60;;;;;;;17.86;38.02;97198.09;5135397;27;20510;-31
2022/03/29 00:09:12;;;;;;;6.13;2.70;;;;;;;17.86;38.13;97197.34;5135363;27;20027;-31
2022/03/29 00:11:37;;;;;;;5.05;2.42;;;;;;;17.89;38.15;97194.44;5135156;27;20471;-32
2022/03/29 00:14:03;;;;;;;4.30;2.17;;;;;;;17.82;38.34;97202.19;5135194;27;20098;-32
2022/03/29 00:16:29;;;;;;;9.65;2.60;;;;;;;17.81;38.34;97200.66;5116554;27;20114;-31
2022/03/29 00:18:54;;;;;;;5.82;3.15;;;;;;;17.80;38.67;97194.41;5135161;27;20019;-31
2022/03/29 00:21:20;;;;;;;6.80;2.80;;;;;;;17.82;38.55;97191.22;5135489;27;20397;-31
2022/03/29 00:23:46;;;;;;;6.53;2.53;;;;;;;17.82;38.61;97186.50;5134813;27;20122;-31
2022/03/29 00:26:12;;;;;;;4.45;2.03;;;;;;;17.78;38.69;97191.38;5134878;27;20047;-31
2022/03/29 00:28:37;;;;;;;6.45;2.58;;;;;;;17.77;39.02;97195.34;5135015;27;20076;-31
2022/03/29 00:31:03;;;;;;;6.90;2.50;;;;;;;17.78;39.12;97191.38;5134772;27;20031;-31
2022/03/29 00:33:29;;;;;;;4.05;2.20;;;;;;;17.82;39.20;97191.22;5134174;27;20106;-31
2022/03/29 00:35:54;;;;;;;8.25;2.50;;;;;;;17.84;39.28;97194.28;5135054;27;20030;-31
2022/03/29 00:38:20;;;;;;;6.57;2.97;;;;;;;17.80;39.14;97188.19;5134604;27;20030;-31
2022/03/29 00:40:46;;;;;;;7.75;2.17;;;;;;;17.75;39.29;97191.53;5116319;27;20474;-31
2022/03/29 00:43:12;;;;;;;4.40;2.00;;;;;;;17.72;39.53;97181.47;5133992;27;20030;-32
2022/03/29 00:45:38;;;;;;;3.97;2.15;;;;;;;17.76;39.27;97176.59;5135234;27;20027;-31
2022/03/29 00:48:08;;;;;;;6.50;2.00;;;;;;;17.79;39.64;97167.47;5134615;27;20026;-31
2022/03/29 00:50:35;;;;;;;4.68;1.95;;;;;;;17.78;39.39;97176.91;5116023;28;20027;-31
2022/03/29 00:53:02;;;;;;;7.85;2.40;;;;;;;17.82;39.36;97169.28;5134381;27;20015;-32
2022/03/29 00:55:27;;;;;;;6.53;2.00;;;;;;;17.84;39.05;97155.88;5134481;27;20027;-31
2022/03/29 00:57:54;;;;;;;5.50;2.35;;;;;;;17.84;39.02;97162.13;5134318;27;20026;-31
2022/03/29 01:00:19;;;;;;;7.65;1.83;;;;;;;17.75;39.37;97155.88;5116257;27;20029;-31
2022/03/29 01:02:45;;;;;;;4.75;1.80;;;;;;;17.75;39.46;97161.34;5134246;27;20122;-31
2022/03/29 01:05:11;;;;;;;5.07;2.33;;;;;;;17.73;39.19;97148.09;5134316;27;20044;-31
2022/03/29 01:07:37;;;;;;;4.93;1.63;;;;;;;17.75;39.13;97155.88;5134548;28;20098;-31
2022/03/29 01:10:21;;;;;;;4.40;1.98;;;;;;;17.73;39.39;97150.06;5116051;28;20034;-31
2022/03/29 01:12:47;;;;;;;10.00;2.00;;;;;;;17.77;39.31;97134.22;5134384;28;20030;-31
2022/03/29 01:15:13;;;;;;;6.05;1.75;;;;;;;17.73;39.34;97128.88;5134295;28;20019;-31
2022/03/29 01:17:42;;;;;;;5.45;1.83;;;;;;;17.75;39.13;97125.69;5134247;28;20046;-31
2022/03/29 01:20:28;;;;;;;3.97;1.50;;;;;;;17.68;39.37;97126.72;5134252;28;20031;-31
2022/03/29 01:22:55;;;;;;;5.65;2.38;;;;;;;17.66;39.30;97117.47;5134289;28;20023;-31
2022/03/29 01:25:28;;;;;;;5.65;1.90;;;;;;;17.71;39.13;97103.13;5115649;28;20383;-31
2022/03/29 01:27:54;;;;;;;7.65;2.67;;;;;;;17.72;39.09;97104.66;5134023;28;20023;-31
2022/03/29 01:30:21;;;;;;;6.97;2.65;;;;;;;17.69;39.04;97100.06;5134060;28;20088;-31
2022/03/29 01:32:50;;;;;;;6.75;2.33;;;;;;;17.72;39.12;97090.94;5134018;28;20038;-31
2022/03/29 01:35:18;;;;;;;8.20;2.35;;;;;;;17.70;39.25;97091.38;5115802;28;20393;-31
2022/03/29 01:37:44;;;;;;;5.07;1.90;;;;;;;17.67;39.14;97081.34;5134637;28;20050;-31
2022/03/29 01:40:15;;;;;;;7.53;2.47;;;;;;;17.66;39.38;97085.31;5133893;28;20054;-31
2022/03/29 01:42:50;;;;;;;7.60;2.20;;;;;;;17.71;39.26;97075.69;5134142;28;20054;-31
2022/03/29 01:45:17;;;;;;;6.30;2.00;;;;;;;17.69;39.16;97080.88;5135264;27;20019;-31
2022/03/29 01:47:43;;;;;;;4.57;1.80;;;;;;;17.70;38.80;97074.16;5138081;27;20023;-31
2022/03/29 01:50:12;;;;;;;6.25;2.08;;;;;;;17.66;38.78;97062.59;5137815;27;20019;-31
2022/03/29 01:52:47;;;;;;;7.47;2.33;;;;;;;17.63;38.82;97056.03;5137753;27;20031;-31
2022/03/29 01:55:16;;;;;;;7.50;2.10;;;;;;;17.66;38.87;97057.88;5137794;27;20111;-32
2022/03/29 01:57:43;;;;;;;7.28;2.38;;;;;;;17.59;38.95;97050.69;5137677;27;20019;-31
2022/03/29 02:02:55;;;;;;;5.40;2.42;;;;;;;17.65;38.79;97052.84;5137340;27;20049;-31
2022/03/29 02:05:21;;;;;;;5.85;2.22;;;;;;;17.60;38.79;97048.69;5137755;27;20093;-32
2022/03/29 02:08:06;;;;;;;5.78;2.28;;;;;;;17.57;38.49;97039.41;5137551;27;20036;-31
2022/03/29 02:10:32;;;;;;;6.35;2.15;;;;;;;17.57;38.37;97044.88;5137584;27;20023;-31
2022/03/29 02:12:58;;;;;;;5.13;1.83;;;;;;;17.60;38.41;97043.97;5137480;27;20019;-31
2022/03/29 02:15:25;;;;;;;5.18;1.70;;;;;;;17.58;38.24;97040.91;5137255;27;20023;-31
2022/03/29 02:17:51;;;;;;;6.10;1.90;;;;;;;17.57;38.63;97035.88;5137489;27;20019;-32
2022/03/29 02:20:17;;;;;;;6.63;2.10;;;;;;;17.59;38.45;97036.19;5118874;27;20023;-31
2022/03/29 02:22:44;;;;;;;5.65;2.00;;;;;;;17.49;38.46;97035.44;5137423;27;20027;-31
2022/03/29 02:25:13;;;;;;;7.35;2.13;;;;;;;17.55;38.36;97030.88;5137276;27;20038;-31
2022/03/29 02:27:41;;;;;;;5.15;2.10;;;;;;;17.54;38.14;97023.13;5137169;27;20467;-31
2022/03/29 02:30:07;;;;;;;4.32;1.88;;;;;;;17.56;37.92;97015.94;5137018;27;20075;-32
2022/03/29 02:32:33;;;;;;;4.28;1.63;;;;;;;17.53;38.13;97011.38;5137055;27;20472;-31
2022/03/29 02:34:59;;;;;;;6.07;1.90;;;;;;;17.54;37.73;97001.94;5136966;27;20048;-31
2022/03/29 02:37:25;;;;;;;7.70;2.28;;;;;;;17.50;37.85;96998.56;5137049;27;20015;-31
2022/03/29 02:39:51;;;;;;;6.07;1.95;;;;;;;17.54;37.94;97006.66;5137162;27;20050;-31
2022/03/29 02:42:17;;;;;;;3.97;1.80;;;;;;;17.47;37.88;96999.50;5136882;27;20027;-31
2022/03/29 02:44:42;;;;;;;4.35;1.65;;;;;;;17.42;37.92;97005.59;5136967;27;20022;-31
2022/03/29 02:47:09;;;;;;;6.05;1.67;;;;;;;17.47;38.07;97002.22;5137159;27;20436;-32
2022/03/29 02:49:35;;;;;;;6.85;2.05;;;;;;;17.45;38.18;96987.44;5136741;27;20098;-32
2022/03/29 02:52:00;;;;;;;5.57;2.35;;;;;;;17.48;38.16;96990.03;5136578;27;20379;-31
2022/03/29 02:54:26;;;;;;;4.88;2.05;;;;;;;17.52;38.23;96990.66;5136722;27;20025;-31
2022/03/29 02:56:52;;;;;;;6.53;1.77;;;;;;;17.45;38.06;96990.94;5136152;27;20030;-31
2022/03/29 02:59:17;;;;;;;4.30;1.60;;;;;;;17.44;38.17;96981.19;5136643;27;20076;-31
2022/03/29 03:01:43;;;;;;;8.77;1.92;;;;;;;17.42;38.22;96983.66;5136318;27;20054;-31
2022/03/29 03:04:08;;;;;;;9.00;2.22;;;;;;;17.45;38.35;96979.97;5136643;27;20031;-32
2022/03/29 03:06:35;;;;;;;7.18;2.35;;;;;;;17.48;38.40;96979.06;5136406;27;20083;-31
2022/03/29 03:09:01;;;;;;;5.68;2.05;;;;;;;17.44;38.33;96972.97;5136457;27;20018;-31
2022/03/29 03:11:26;;;;;;;5.28;1.70;;;;;;;17.42;38.43;96961.72;5136161;27;20059;-31
2022/03/29 03:13:52;;;;;;;3.95;1.92;;;;;;;17.44;38.27;96964.75;5136403;27;20422;-32
2022/03/29 03:16:18;;;;;;;6.53;2.70;;;;;;;17.36;38.47;96960.81;5136347;27;20030;-31
2022/03/29 03:18:43;;;;;;;6.95;1.92;;;;;;;17.36;38.54;96951.81;5117791;27;20026;-31
2022/03/29 03:21:09;;;;;;;5.57;2.13;;;;;;;17.38;38.43;96957.59;5136169;27;20344;-31
2022/03/29 03:26:39;;;;;;;;;;;;;;;17.44;37.95;96950.28;5136295;27;20061;-31
2022/03/29 03:29:04;;;;;;;7.07;2.00;;;;;;;17.37;38.08;96948.63;5136221;27;19939;-31
2022/03/29 03:31:30;;;;;;;6.72;2.33;;;;;;;17.39;37.92;96951.66;5135842;27;20026;-31
2022/03/29 03:33:55;;;;;;;5.97;1.88;;;;;;;17.35;38.08;96958.53;5135917;27;20015;-31
2022/03/29 03:36:21;;;;;;;7.80;2.13;;;;;;;17.34;38.14;96955.00;5135824;27;20482;-31
2022/03/29 03:38:47;;;;;;;8.68;2.80;;;;;;;17.36;38.09;96957.31;5136039;27;20023;-31
2022/03/29 03:41:12;;;;;;;7.57;2.50;;;;;;;17.36;38.25;96957.31;5136020;27;20382;-31
2022/03/29 03:43:38;;;;;;;4.97;2.50;;;;;;;17.34;38.10;96963.25;5135858;27;20027;-31
2022/03/29 03:46:04;;;;;;;9.38;2.45;;;;;;;17.38;37.99;96954.88;5135672;27;20026;-31
2022/03/29 03:48:29;;;;;;;4.43;2.00;;;;;;;17.39;38.37;96959.13;5135589;27;20362;-32
2022/03/29 03:50:55;;;;;;;10.48;2.53;;;;;;;17.35;38.16;96953.78;5117100;27;20034;-31
2022/03/29 03:53:21;;;;;;;8.88;2.47;;;;;;;17.38;38.11;96947.41;5135362;27;20015;-31
2022/03/29 03:55:46;;;;;;;3.83;2.10;;;;;;;17.38;37.72;96928.22;5135476;27;20023;-33
2022/03/29 03:58:13;;;;;;;7.30;2.10;;;;;;;17.36;37.80;96940.84;5135652;27;20026;-31
2022/03/29 04:00:39;;;;;;;7.28;2.70;;;;;;;17.33;37.89;96934.31;5135340;27;20067;-32
2022/03/29 04:03:05;;;;;;;7.60;2.13;;;;;;;17.27;38.10;96936.16;5135064;27;20048;-31
2022/03/29 04:05:31;;;;;;;8.73;2.25;;;;;;;17.34;37.97;96926.84;5135327;27;20075;-31
2022/03/29 04:07:57;;;;;;;8.25;2.60;;;;;;;17.26;37.97;96926.41;5134528;27;20027;-31
2022/03/29 04:10:22;;;;;;;5.80;1.80;;;;;;;17.29;37.82;96924.72;5135102;27;20037;-33
2022/03/29 04:12:48;;;;;;;5.63;2.00;;;;;;;17.34;37.86;96924.84;5135070;27;20058;-31
2022/03/29 04:15:13;;;;;;;6.20;2.20;;;;;;;17.31;37.88;96923.03;5135041;27;20023;-31
2022/03/29 04:17:39;;;;;;;4.05;2.13;;;;;;;17.27;38.13;96927.16;5135021;27;20027;-31
2022/03/29 04:20:06;;;;;;;7.95;2.35;;;;;;;17.21;38.26;96930.50;5135088;27;20098;-31
2022/03/29 04:22:31;;;;;;;5.80;1.95;;;;;;;17.28;38.13;96931.44;5134837;27;20019;-31
2022/03/29 04:24:57;;;;;;;4.50;1.85;;;;;;;17.31;38.21;96936.00;5134828;27;20058;-31
2022/03/29 04:27:23;;;;;;;8.00;2.28;;;;;;;17.33;37.99;96925.31;5134894;27;20420;-31
2022/03/29 04:29:48;;;;;;;9.95;2.40;;;;;;;17.27;38.45;96935.38;5134698;27;20015;-31
2022/03/29 04:32:14;;;;;;;6.97;2.33;;;;;;;17.27;38.21;96932.66;5116379;27;20030;-32
2022/03/29 04:34:40;;;;;;;6.43;2.40;;;;;;;17.28;38.20;96937.66;5134599;27;20019;-32
2022/03/29 04:37:05;;;;;;;5.32;2.42;;;;;;;17.30;38.22;96932.50;5134529;27;20043;-32
2022/03/29 04:39:31;;;;;;;8.90;2.70;;;;;;;17.26;38.36;96939.34;5134649;27;20045;-31
2022/03/29 04:41:57;;;;;;;5.82;2.40;;;;;;;17.27;38.58;96930.66;5134574;27;20102;-31
2022/03/29 04:44:23;;;;;;;4.50;2.40;;;;;;;17.23;38.58;96933.56;5134600;27;20027;-31
2022/03/29 04:46:49;;;;;;;6.68;2.60;;;;;;;17.24;38.64;96935.06;5134466;27;20382;-31
2022/03/29 04:49:14;;;;;;;7.55;2.63;;;;;;;17.28;38.22;96926.72;5116095;27;20079;-31
2022/03/29 04:51:40;;;;;;;8.93;2.40;;;;;;;17.27;38.55;96924.41;5134330;27;20108;-31
2022/03/29 04:54:06;;;;;;;8.77;2.70;;;;;;;17.27;38.61;96932.66;5134765;27;20027;-31
2022/03/29 04:56:33;;;;;;;7.82;2.42;;;;;;;17.29;38.33;96928.22;5134365;27;20016;-31
2022/03/29 04:58:58;;;;;;;6.70;2.50;;;;;;;17.22;38.63;96925.78;5115999;27;20483;-31
2022/03/29 05:01:24;;;;;;;6.68;2.47;;;;;;;17.26;38.50;96928.38;5116045;27;20142;-32
2022/03/29 05:04:02;;;;;;;7.40;3.13;;;;;;;17.20;38.77;96922.72;5134302;27;20034;-31
2022/03/29 05:06:27;;;;;;;4.78;2.85;;;;;;;17.20;38.60;96931.72;5134377;27;20055;-31
2022/03/29 05:08:53;;;;;;;6.47;2.95;;;;;;;17.23;38.47;96928.06;5134399;28;20115;-31
2022/03/29 05:11:18;;;;;;;7.03;2.97;;;;;;;17.25;38.52;96930.34;5134196;28;20046;-32
2022/03/29 05:13:44;;;;;;;9.77;3.25;;;;;;;17.24;38.39;96931.56;5134334;28;20027;-31
2022/03/29 05:16:09;;;;;;;5.30;2.80;;;;;;;17.19;38.36;96932.94;5134310;28;20051;-31
2022/03/29 05:18:35;;;;;;;6.68;2.50;;;;;;;17.17;38.43;96935.41;5131419;27;20022;-31
2022/03/29 05:21:01;;;;;;;6.43;2.33;;;;;;;17.24;38.52;96937.06;5121462;27;20022;-32
2022/03/29 05:23:27;;;;;;;5.85;2.67;;;;;;;17.21;38.16;96929.75;5117040;27;20519;-31
2022/03/29 05:25:53;;;;;;;5.50;2.63;;;;;;;17.24;38.14;96934.31;5136275;27;20035;-32
2022/03/29 05:28:18;;;;;;;8.18;2.78;;;;;;;17.20;38.26;96933.69;5136153;27;20041;-32
2022/03/29 05:30:44;;;;;;;10.52;3.38;;;;;;;17.22;37.99;96925.78;5135914;27;20030;-31
2022/03/29 05:33:15;;;;;;;6.15;2.78;;;;;;;17.20;37.98;96925.47;5136029;27;20031;-31
2022/03/29 05:35:43;;;;;;;7.53;3.20;;;;;;;17.15;38.34;96915.91;5134432;27;20037;-31
2022/03/29 05:38:09;;;;;;;8.85;3.88;;;;;;;17.15;38.20;96926.09;5115374;28;20077;-31
2022/03/29 05:40:34;;;;;;;8.70;4.30;;;;;;;17.13;38.01;96923.06;5115609;28;20564;-31
2022/03/29 05:43:00;;;;;;;9.63;4.53;;;;;;;17.13;38.01;96917.56;5115431;28;20023;-31
2022/03/29 05:45:26;;;;;;;11.50;3.63;;;;;;;17.13;38.20;96923.06;5115428;28;20460;-31
2022/03/29 05:50:36;;;;;;;10.60;4.43;;;;;;;17.15;38.07;96929.59;5115344;28;20536;-32
2022/03/29 05:53:02;;;;;;;10.82;5.68;;;;;;;17.19;38.06;96929.44;5096896;28;20032;-31
2022/03/29 05:55:28;;;;;;;16.42;7.35;;;;;;;17.22;37.87;96934.00;5096746;28;20063;-31
2022/03/29 05:57:55;;;;;;;17.75;8.07;;;;;;;17.12;38.03;96925.03;5115195;28;20043;-31
2022/03/29 06:00:23;;;;;;;17.77;9.25;;;;;;;17.20;37.79;96928.22;5115240;28;20084;-31
2022/03/29 06:02:49;;;;;;;16.83;8.73;;;;;;;17.18;37.87;96916.97;5115022;28;20473;-31
2022/03/29 06:05:14;;;;;;;16.25;8.70;;;;;;;17.17;37.95;96923.66;5114753;28;20031;-31
2022/03/29 06:07:40;;;;;;;12.48;7.32;;;;;;;17.13;37.91;96923.81;5115141;28;20404;-31
2022/03/29 06:10:06;;;;;;;14.25;8.05;;;;;;;17.13;37.81;96926.56;5115166;28;20107;-31
2022/03/29 06:12:33;;;;;;;16.05;8.20;;;;;;;17.14;37.79;96922.59;5119378;27;20439;-31
2022/03/29 06:15:05;;;;;;;20.60;9.68;;;;;;;17.17;37.89;96918.19;5135561;27;20083;-31
2022/03/29 06:17:31;;;;;;;16.27;7.28;;;;;;;17.10;38.09;96913.75;5135348;27;20027;-32
2022/03/29 06:22:48;;;;;;;19.13;7.55;;;;;;;17.15;37.77;96913.16;5135407;27;20026;-32
2022/03/29 06:25:13;;;;;;;17.35;7.78;;;;;;;17.16;37.68;96905.69;5116619;27;20023;-31
2022/03/29 06:27:40;;;;;;;19.60;7.80;;;;;;;17.16;37.69;96903.72;5135245;27;20027;-31
2022/03/29 06:30:08;;;;;;;13.52;6.97;;;;;;;17.10;37.96;96902.03;5135079;27;20039;-32
2022/03/29 06:32:34;;;;;;;13.32;6.45;;;;;;;17.12;37.79;96913.31;5134730;27;20033;-31
2022/03/29 06:34:59;;;;;;;15.75;6.55;;;;;;;17.18;37.82;96914.97;5135145;27;20413;-33
2022/03/29 06:37:25;;;;;;;15.75;6.65;;;;;;;17.20;37.53;96911.78;5135127;27;20450;-31
2022/03/29 06:39:51;;;;;;;16.90;6.60;;;;;;;17.21;37.62;96910.56;5135131;27;20401;-31
2022/03/29 06:42:18;;;;;;;11.15;5.22;;;;;;;17.20;37.49;96909.78;5134797;27;20077;-31
2022/03/29 06:44:47;;;;;;;12.57;6.15;;;;;;;17.22;37.45;96910.09;5134934;27;20027;-32
2022/03/29 06:47:13;;;;;;;15.05;5.43;;;;;;;17.27;37.21;96914.22;5133315;27;20027;-31
2022/03/29 06:49:39;;;;;;;14.35;5.60;;;;;;;17.22;37.36;96915.59;5134662;27;20470;-31
2022/03/29 06:52:05;;;;;;;12.20;5.72;;;;;;;17.20;37.29;96912.53;5134757;27;20031;-31
2022/03/29 06:54:31;;;;;;;14.02;5.32;;;;;;;17.28;37.16;96923.19;5134299;27;20027;-31
2022/03/29 06:56:57;;;;;;;8.57;4.90;;;;;;;17.18;37.29;96914.97;5134689;27;20027;-31
2022/03/29 06:59:22;;;;;;;11.27;4.90;;;;;;;17.21;37.15;96916.81;5134883;27;20106;-31
2022/03/29 07:01:48;;;;;;;12.70;5.35;;;;;;;17.24;37.07;96906.91;5127535;27;20143;-32
2022/03/29 07:04:14;;;;;;;10.25;4.55;;;;;;;17.21;37.14;96907.81;5114005;28;20429;-31
2022/03/29 07:06:39;;;;;;;10.45;4.80;;;;;;;17.23;36.97;96927.31;5113826;28;20035;-31
2022/03/29 07:11:49;;;;;;;11.90;4.28;;;;;;;17.30;36.53;96918.78;5108671;28;20522;-31
2022/03/29 07:14:15;;;;;;;11.15;4.60;;;;;;;17.29;36.83;96922.75;5114734;28;20035;-32
2022/03/29 07:16:43;;;;;;;9.02;4.50;;;;;;;17.23;36.99;96922.59;5115486;28;20023;-31
2022/03/29 07:19:09;;;;;;;10.07;4.78;;;;;;;17.18;36.89;96920.44;5116018;28;20115;-31
2022/03/29 07:21:37;;;;;;;10.35;4.10;;;;;;;17.26;36.90;96923.66;5115659;28;20062;-31
2022/03/29 07:24:04;;;;;;;9.43;4.30;;;;;;;17.21;37.03;96914.06;5115749;28;20102;-31
2022/03/29 07:26:30;;;;;;;9.35;4.10;;;;;;;17.18;37.33;96917.72;5115536;28;20024;-31
2022/03/29 07:28:56;;;;;;;8.85;4.65;;;;;;;17.19;37.27;96921.97;5115690;28;20023;-31
2022/03/29 07:31:22;;;;;;;9.30;4.28;;;;;;;17.24;37.37;96915.13;5115192;28;20027;-31
2022/03/29 07:33:48;;;;;;;9.85;4.07;;;;;;;17.24;37.43;96923.34;5115403;28;20055;-31
2022/03/29 07:36:16;;;;;;;10.48;4.25;;;;;;;17.21;37.62;96927.75;5115437;28;20039;-31
2022/03/29 07:38:41;;;;;;;8.20;3.78;;;;;;;17.23;37.81;96930.81;5115214;28;20088;-31
2022/03/29 07:41:07;;;;;;;10.90;3.88;;;;;;;17.08;38.17;96938.13;5114974;28;20477;-31
2022/03/29 07:43:32;;;;;;;16.23;4.60;;;;;;;16.08;45.37;96932.41;5113890;28;20459;-32
2022/03/29 07:45:59;;;;;;;14.68;5.25;;;;;;;15.40;46.78;96937.66;5112773;28;20462;-32
2022/03/29 07:48:25;;;;;;;16.02;5.28;;;;;;;16.08;44.76;96938.66;5111514;28;20027;-31
2022/03/29 07:50:50;;;;;;;15.00;4.65;;;;;;;16.40;43.65;96937.41;5112865;28;20076;-31
2022/03/29 07:53:16;;;;;;;9.52;4.47;;;;;;;16.48;43.12;96941.38;5112336;28;20468;-31
2022/03/29 07:55:42;;;;;;;15.32;5.03;;;;;;;16.63;42.83;96943.56;5112457;28;20028;-31
2022/03/29 07:58:08;;;;;;;9.52;4.53;;;;;;;16.71;42.41;96944.78;5111671;28;20046;-31
2022/03/29 08:00:35;;;;;;;8.85;4.97;;;;;;;16.65;42.54;96944.63;5112910;28;20150;-32
2022/03/29 08:03:14;;;;;;;7.80;4.15;;;;;;;16.72;42.50;96943.56;5101562;28;20056;-31
2022/03/29 08:05:41;;;;;;;12.48;4.38;;;;;;;16.76;42.25;96939.47;5089076;28;20071;-31
2022/03/29 08:08:10;;;;;;;10.13;4.45;;;;;;;16.75;42.18;96948.91;5092518;28;20023;-31
2022/03/29 08:10:35;;;;;;;13.93;4.65;;;;;;;16.81;41.57;96951.81;5092176;28;20035;-31
2022/03/29 08:13:03;;;;;;;11.77;4.15;;;;;;;16.79;42.00;96941.31;5090903;28;20369;-31
2022/03/29 08:15:29;;;;;;;6.68;4.15;;;;;;;16.73;41.98;96940.38;5092259;28;20023;-31
2022/03/29 08:17:58;;;;;;;13.60;4.50;;;;;;;16.77;42.00;96941.00;5092111;28;20027;-31
2022/03/29 08:20:24;;;;;;;14.15;4.63;;;;;;;16.79;41.74;96924.88;5092036;28;20028;-31
2022/03/29 08:22:50;;;;;;;14.25;4.25;;;;;;;16.82;41.47;96932.16;5091491;28;20039;-31
2022/03/29 08:25:18;;;;;;;8.43;3.90;;;;;;;16.92;41.22;96937.69;5092109;28;20035;-32
2022/03/29 08:27:45;;;;;;;8.55;3.75;;;;;;;16.86;41.08;96941.00;5091829;28;20027;-31
2022/03/29 08:30:13;;;;;;;12.55;3.75;;;;;;;16.92;40.70;96945.88;5092494;28;20028;-31
2022/03/29 08:32:39;;;;;;;10.57;4.00;;;;;;;16.78;41.10;96939.78;5110733;28;20216;-31
2022/03/29 08:35:07;;;;;;;7.25;4.28;;;;;;;16.84;40.65;96951.66;5111627;28;20146;-31
2022/03/29 08:37:35;;;;;;;8.23;3.55;;;;;;;16.84;40.81;96940.69;5111836;28;20035;-31
2022/03/29 08:40:03;;;;;;;8.55;3.75;;;;;;;16.62;40.78;96945.53;5111949;28;20039;-31
2022/03/29 08:42:29;;;;;;;8.18;3.85;;;;;;;16.75;40.58;96943.44;5112029;28;20015;-31
2022/03/29 08:44:54;;;;;;;7.55;3.42;;;;;;;16.88;39.84;96946.03;5112073;28;20140;-31
2022/03/29 08:47:20;;;;;;;5.43;3.30;;;;;;;16.87;39.72;96936.28;5111748;28;20027;-31
2022/03/29 08:49:49;;;;;;;8.85;3.47;;;;;;;16.85;39.63;96942.22;5110858;28;20164;-31
2022/03/29 08:52:17;;;;;;;10.52;4.05;;;;;;;16.79;39.73;96929.59;5111935;28;20023;-31
2022/03/29 08:54:44;;;;;;;9.35;3.72;;;;;;;16.82;39.45;96931.41;5111704;28;20035;-31
2022/03/29 08:57:10;;;;;;;7.72;4.20;;;;;;;16.87;39.57;96939.78;5112078;28;20755;-31
2022/03/29 08:59:36;;;;;;;9.35;3.17;;;;;;;16.79;39.58;96933.09;5111668;28;20032;-32
2022/03/29 09:02:16;;;;;;;9.80;3.60;;;;;;;16.74;39.66;96925.47;5111774;28;20488;-31
2022/03/29 09:04:43;;;;;;;6.68;3.30;;;;;;;16.76;39.34;96928.53;5110287;28;20131;-31
2022/03/29 09:07:09;;;;;;;10.60;4.40;;;;;;;16.83;39.18;96932.94;5111893;28;20036;-31
2022/03/29 09:09:41;;;;;;;8.95;3.47;;;;;;;16.86;38.61;96934.75;5111536;28;20020;-31
2022/03/29 09:12:17;;;;;;;16.63;4.68;;;;;;;16.88;38.62;96933.09;5111723;28;20510;-31
2022/03/29 09:14:54;;;;;;;19.15;5.07;;;;;;;16.90;38.48;96934.63;5111936;28;20027;-31
2022/03/29 09:17:27;;;;;;;14.00;4.28;;;;;;;16.83;38.59;96938.41;5111423;28;20027;-32
2022/03/29 09:19:55;;;;;;;15.68;4.55;;;;;;;16.72;38.66;96927.91;5111621;28;20024;-31
2022/03/29 09:22:43;;;;;;;10.40;4.28;;;;;;;16.73;38.54;96929.41;5111588;28;20027;-31
2022/03/29 09:25:23;;;;;;;12.00;4.28;;;;;;;16.85;38.41;96925.78;5111484;28;20036;-31
2022/03/29 09:27:58;;;;;;;13.15;4.28;;;;;;;16.45;38.90;96925.06;5110407;28;20058;-32
2022/03/29 09:30:31;;;;;;;10.18;4.35;;;;;;;16.78;38.29;96928.84;5111729;28;20435;-31
2022/03/29 09:33:04;;;;;;;14.85;5.05;;;;;;;16.87;37.96;96928.84;5111663;28;20403;-31
2022/03/29 09:35:31;;;;;;;10.13;3.95;;;;;;;16.89;38.09;96922.91;5111260;28;20031;-32
2022/03/29 09:37:58;;;;;;;10.02;4.22;;;;;;;16.82;38.18;96918.47;5111461;28;20084;-31
2022/03/29 09:40:39;;;;;;;10.55;3.72;;;;;;;16.92;37.72;96908.31;5091677;28;20055;-31
2022/03/29 09:43:08;;;;;;;13.32;4.97;;;;;;;16.75;38.19;96915.28;5089551;28;20089;-31
2022/03/29 09:45:44;;;;;;;11.02;4.25;;;;;;;16.84;38.22;96916.03;5091150;28;20020;-32
2022/03/29 09:48:31;;;;;;;7.40;4.07;;;;;;;16.93;37.75;96909.06;5091298;28;20030;-31
2022/03/29 09:51:08;;;;;;;9.18;4.57;;;;;;;16.99;37.70;96907.22;5091171;28;20028;-32
2022/03/29 09:53:45;;;;;;;10.48;4.38;;;;;;;16.85;37.95;96903.09;5090999;28;20105;-31
2022/03/29 09:56:15;;;;;;;12.35;4.15;;;;;;;16.78;38.33;96892.47;5091251;28;20024;-31
2022/03/29 09:58:42;;;;;;;11.20;4.45;;;;;;;16.84;38.24;96896.09;5090883;28;20024;-31
2022/03/29 10:01:22;;;;;;;17.60;7.40;;;;;;;16.81;38.43;96886.81;5092036;28;20016;-31
2022/03/29 10:03:51;;;;;;;12.55;5.93;;;;;;;16.48;39.26;96896.78;5109874;28;20023;-31
2022/03/29 10:06:18;;;;;;;14.48;5.78;;;;;;;16.69;38.68;96895.94;5112707;28;20034;-32
2022/03/29 10:11:34;;;;;;;9.90;5.35;;;;;;;16.74;38.74;96889.88;5114808;28;20035;-31
2022/03/29 10:14:06;;;;;;;11.65;5.18;;;;;;;16.85;38.38;96886.66;5115110;28;20031;-31
2022/03/29 10:16:32;;;;;;;12.43;5.20;;;;;;;16.92;38.15;96885.63;5114718;28;20399;-32
2022/03/29 10:18:59;;;;;;;10.93;5.63;;;;;;;16.94;37.92;96880.44;5114909;28;20035;-32
2022/03/29 10:21:27;;;;;;;20.80;6.63;;;;;;;16.62;39.10;96884.50;5114817;28;20027;-32
2022/03/29 10:23:52;;;;;;;11.65;5.22;;;;;;;16.74;38.97;96867.97;5096332;28;20031;-32
2022/03/29 10:26:24;;;;;;;11.05;5.38;;;;;;;16.98;38.20;96867.34;5114668;28;20432;-31
2022/03/29 10:28:51;;;;;;;13.60;5.50;;;;;;;16.83;38.55;96864.44;5114693;28;20486;-32
2022/03/29 10:31:30;;;;;;;10.38;5.05;;;;;;;17.02;37.97;96857.00;5114710;28;20019;-32
2022/03/29 10:34:17;;;;;;;14.93;5.75;;;;;;;17.09;37.61;96851.94;5114540;28;20024;-32
2022/03/29 10:37:14;;;;;;;11.07;4.90;;;;;;;16.99;38.47;96855.94;5114590;28;20044;-31
2022/03/29 10:39:56;;;;;;;12.48;5.22;;;;;;;17.05;37.92;96858.81;5107954;27;20502;-31
2022/03/29 10:42:47;;;;;;;11.43;4.95;;;;;;;17.10;37.92;96849.97;5116679;27;20459;-31
2022/03/29 10:45:12;;;;;;;10.60;5.07;;;;;;;16.96;37.84;96851.34;5135033;27;20483;-31
2022/03/29 10:47:39;;;;;;;10.25;4.85;;;;;;;17.14;37.40;96840.38;5116195;27;20114;-31
2022/03/29 10:50:07;;;;;;;10.15;4.43;;;;;;;17.14;37.50;96834.13;5134609;27;20027;-31
2022/03/29 10:52:50;;;;;;;10.60;5.10;;;;;;;17.13;37.69;96830.63;5134413;27;20019;-33
2022/03/29 10:55:28;;;;;;;8.87;4.93;;;;;;;17.19;37.17;96822.53;5134486;27;20531;-31
2022/03/29 10:58:06;;;;;;;7.30;4.53;;;;;;;17.05;37.66;96828.69;5134530;27;20038;-32
2022/03/29 11:00:34;;;;;;;8.23;4.28;;;;;;;17.16;37.40;96824.25;5133964;27;20072;-32
2022/03/29 11:03:07;;;;;;;11.25;4.68;;;;;;;17.19;37.23;96811.56;5117574;27;20044;-31
2022/03/29 11:05:32;;;;;;;7.50;4.78;;;;;;;17.20;37.44;96819.34;5112567;28;20027;-32
2022/03/29 11:08:11;;;;;;;8.90;4.90;;;;;;;17.19;37.13;96812.34;5113540;28;20053;-31
2022/03/29 11:10:42;;;;;;;9.98;4.53;;;;;;;17.23;37.00;96806.69;5113464;28;20019;-31
2022/03/29 11:13:38;;;;;;;9.35;4.50;;;;;;;17.19;37.25;96806.09;5113507;28;20031;-31
2022/03/29 11:16:25;;;;;;;9.60;4.68;;;;;;;17.24;36.96;96806.25;5113906;28;20024;-31
2022/03/29 11:18:51;;;;;;;7.70;3.72;;;;;;;17.29;36.81;96798.63;5113300;28;20030;-31
2022/03/29 11:21:37;;;;;;;9.20;4.90;;;;;;;17.27;36.93;96804.56;5113795;28;20031;-31
2022/03/29 11:24:05;;;;;;;15.57;4.50;;;;;;;17.31;36.65;96796.94;5113735;28;20030;-32
2022/03/29 11:26:33;;;;;;;9.90;3.90;;;;;;;17.35;36.64;96803.00;5113560;28;20035;-31
2022/03/29 11:29:00;;;;;;;9.02;4.53;;;;;;;17.33;36.85;96790.97;5113371;27;20027;-31
2022/03/29 11:31:54;;;;;;;7.40;3.80;;;;;;;17.29;36.80;96791.16;5113476;28;20416;-31
2022/03/29 11:34:20;;;;;;;8.18;3.97;;;;;;;17.27;36.72;96788.13;5110616;28;20042;-31
2022/03/29 11:36:46;;;;;;;9.57;4.18;;;;;;;17.28;36.84;96786.91;5112576;28;20019;-31
2022/03/29 11:39:26;;;;;;;7.50;3.60;;;;;;;17.33;36.62;96775.28;5113273;28;20535;-31
2022/03/29 11:41:53;;;;;;;7.25;4.20;;;;;;;17.29;36.72;96771.97;5113026;28;20102;-32
2022/03/29 11:44:21;;;;;;;8.52;4.15;;;;;;;17.30;36.74;96776.25;5111949;28;20074;-31
2022/03/29 11:46:50;;;;;;;5.93;4.50;;;;;;;17.32;36.77;96768.28;5113260;28;20119;-31
2022/03/29 11:49:22;;;;;;;7.28;3.55;;;;;;;17.38;36.38;96760.97;5111736;28;20030;-31
2022/03/29 11:52:11;;;;;;;8.40;3.33;;;;;;;17.38;36.49;96755.50;5113103;28;20080;-31
2022/03/29 11:54:54;;;;;;;5.25;3.55;;;;;;;17.37;36.54;96753.22;5113175;28;20032;-31